createdAt,value
2023-04-26T00:00:34.162Z,11.58
2023-04-26T00:03:01.537Z,12.08
2023-04-26T00:05:29.802Z,12.10
2023-04-26T00:07:57.299Z,11.87
2023-04-26T00:10:24.261Z,11.55
2023-04-26T00:12:51.275Z,11.31
2023-04-26T00:15:18.317Z,11.07
2023-04-26T00:17:45.531Z,11.44
2023-04-26T00:20:13.697Z,11.95
2023-04-26T00:22:41.194Z,11.93
2023-04-26T00:25:08.765Z,11.67
2023-04-26T00:27:36.720Z,11.40
2023-04-26T00:30:04.479Z,11.12
2023-04-26T00:32:32.438Z,10.89
2023-04-26T00:34:59.543Z,11.30
2023-04-26T00:37:26.977Z,11.85
2023-04-26T00:39:53.996Z,11.87
2023-04-26T00:42:21.039Z,11.70
2023-04-26T00:44:49.683Z,11.45
2023-04-26T00:47:16.737Z,11.18
2023-04-26T00:49:44.051Z,10.87
2023-04-26T00:52:11.392Z,11.19
2023-04-26T00:54:38.634Z,11.66
2023-04-26T00:57:07.246Z,11.64
2023-04-26T00:59:35.505Z,11.31
2023-04-26T01:02:05.355Z,11.07
2023-04-26T01:04:33.335Z,10.75
2023-04-26T01:07:01.650Z,10.48
2023-04-26T01:09:32.419Z,10.87
2023-04-26T01:12:00.973Z,11.37
2023-04-26T01:14:28.219Z,11.37
2023-04-26T01:16:56.659Z,11.15
2023-04-26T01:19:23.763Z,10.89
2023-04-26T01:21:50.896Z,10.64
2023-04-26T01:24:17.975Z,10.35
2023-04-26T01:26:47.900Z,10.76
2023-04-26T01:29:16.515Z,11.28
2023-04-26T01:31:43.792Z,11.35
2023-04-26T01:34:10.994Z,11.15
2023-04-26T01:36:38.250Z,10.89
2023-04-26T01:39:05.236Z,10.63
2023-04-26T01:41:33.932Z,10.33
2023-04-26T01:44:01.587Z,10.69
2023-04-26T01:46:28.859Z,11.09
2023-04-26T01:48:57.545Z,11.12
2023-04-26T01:52:04.976Z,10.65
2023-04-26T01:54:32.290Z,10.38
2023-04-26T01:57:00.492Z,10.10
2023-04-26T01:59:28.102Z,10.52
2023-04-26T02:01:55.469Z,10.91
2023-04-26T02:04:24.248Z,10.82
2023-04-26T02:06:51.397Z,10.54
2023-04-26T02:09:18.546Z,10.27
2023-04-26T02:11:45.599Z,10.03
2023-04-26T02:14:12.818Z,10.43
2023-04-26T02:16:40.535Z,10.93
2023-04-26T02:19:10.943Z,10.93
2023-04-26T02:21:52.261Z,10.76
2023-04-26T02:24:19.564Z,10.50
2023-04-26T02:26:46.740Z,10.22
2023-04-26T02:29:13.904Z,10.00
2023-04-26T02:31:41.139Z,10.39
2023-04-26T02:34:08.785Z,10.87
2023-04-26T02:36:36.033Z,10.87
2023-04-26T02:39:03.597Z,10.65
2023-04-26T02:41:33.743Z,10.40
2023-04-26T02:44:01.574Z,10.13
2023-04-26T02:46:28.827Z,9.86
2023-04-26T02:48:56.229Z,10.30
2023-04-26T02:51:23.647Z,10.84
2023-04-26T02:53:50.688Z,10.89
2023-04-26T02:56:19.575Z,10.66
2023-04-26T02:58:47.265Z,10.35
2023-04-26T03:01:15.226Z,10.13
2023-04-26T03:03:42.704Z,9.84
2023-04-26T03:06:09.886Z,10.22
2023-04-26T03:08:36.968Z,10.57
2023-04-26T03:11:04.193Z,10.57
2023-04-26T03:13:31.763Z,10.39
2023-04-26T03:15:59.021Z,10.17
2023-04-26T03:18:26.373Z,9.86
2023-04-26T03:20:53.386Z,10.24
2023-04-26T03:23:24.387Z,10.69
2023-04-26T03:25:51.916Z,10.70
2023-04-26T03:28:19.842Z,10.50
2023-04-26T03:30:47.279Z,10.19
2023-04-26T03:33:15.106Z,9.92
2023-04-26T03:35:42.267Z,9.69
2023-04-26T03:38:09.515Z,10.08
2023-04-26T03:40:36.521Z,10.58
2023-04-26T03:43:03.916Z,10.68
2023-04-26T03:45:31.378Z,10.55
2023-04-26T03:47:58.723Z,10.31
2023-04-26T03:50:25.986Z,10.08
2023-04-26T03:52:53.274Z,9.82
2023-04-26T03:55:20.551Z,10.25
2023-04-26T03:57:48.347Z,10.77
2023-04-26T04:00:15.724Z,10.82
2023-04-26T04:02:43.163Z,10.59
2023-04-26T04:05:11.963Z,10.36
2023-04-26T04:07:40.066Z,10.10
2023-04-26T04:10:07.632Z,9.85
2023-04-26T04:12:37.371Z,10.25
2023-04-26T04:15:04.702Z,10.72
2023-04-26T04:17:32.422Z,10.70
2023-04-26T04:19:59.584Z,10.57
2023-04-26T04:22:26.959Z,10.32
2023-04-26T04:24:54.671Z,10.11
2023-04-26T04:27:22.955Z,9.88
2023-04-26T04:29:50.621Z,10.29
2023-04-26T04:32:17.825Z,10.80
2023-04-26T04:34:46.836Z,10.77
2023-04-26T04:37:15.672Z,10.64
2023-04-26T04:39:42.906Z,10.41
2023-04-26T04:42:10.447Z,10.21
2023-04-26T04:44:38.228Z,9.96
2023-04-26T04:47:05.839Z,10.36
2023-04-26T04:49:33.581Z,10.85
2023-04-26T04:52:01.081Z,10.85
2023-04-26T04:54:28.056Z,10.53
2023-04-26T04:56:55.703Z,10.24
2023-04-26T04:59:23.129Z,10.04
2023-04-26T05:01:51.076Z,9.79
2023-04-26T05:04:19.189Z,10.30
2023-04-26T05:06:46.398Z,10.83
2023-04-26T05:09:13.598Z,10.84
2023-04-26T05:11:41.314Z,10.58
2023-04-26T05:14:09.929Z,10.31
2023-04-26T05:16:37.274Z,10.04
2023-04-26T05:19:04.767Z,9.83
2023-04-26T05:21:33.887Z,10.23
2023-04-26T05:24:01.028Z,10.73
2023-04-26T05:26:27.993Z,10.75
2023-04-26T05:29:10.349Z,10.49
2023-04-26T05:31:56.886Z,10.13
2023-04-26T05:34:42.462Z,9.91
2023-04-26T05:37:12.880Z,9.65
2023-04-26T05:39:39.764Z,10.10
2023-04-26T05:42:06.986Z,10.49
2023-04-26T05:44:33.899Z,10.40
2023-04-26T05:47:02.381Z,10.16
2023-04-26T05:49:29.410Z,9.96
2023-04-26T05:51:59.285Z,9.67
2023-04-26T05:54:26.304Z,9.46
2023-04-26T05:56:53.471Z,9.95
2023-04-26T05:59:20.418Z,10.43
2023-04-26T06:01:47.951Z,10.49
2023-04-26T06:04:15.616Z,10.35
2023-04-26T06:06:51.125Z,10.06
2023-04-26T06:09:20.098Z,9.85
2023-04-26T06:11:47.812Z,9.68
2023-04-26T06:14:29.437Z,10.18
2023-04-26T06:16:59.428Z,10.61
2023-04-26T06:19:27.705Z,10.58
2023-04-26T06:21:55.578Z,10.34
2023-04-26T06:24:23.557Z,10.10
2023-04-26T06:26:50.498Z,9.84
2023-04-26T06:29:17.628Z,9.70
2023-04-26T06:31:44.699Z,10.12
2023-04-26T06:34:12.458Z,10.79
2023-04-26T06:36:39.704Z,10.80
2023-04-26T06:39:06.946Z,10.62
2023-04-26T06:41:34.526Z,10.31
2023-04-26T06:44:01.501Z,10.18
2023-04-26T06:46:31.641Z,10.09
2023-04-26T06:48:58.619Z,10.55
2023-04-26T06:51:25.557Z,11.17
2023-04-26T06:53:53.146Z,11.23
2023-04-26T06:56:20.430Z,11.03
2023-04-26T06:59:03.948Z,10.78
2023-04-26T07:01:34.012Z,10.55
2023-04-26T07:04:03.704Z,10.41
2023-04-26T07:06:32.108Z,10.88
2023-04-26T07:09:01.253Z,11.53
2023-04-26T07:11:29.014Z,11.59
2023-04-26T07:13:56.058Z,11.50
2023-04-26T07:16:23.250Z,11.34
2023-04-26T07:18:50.556Z,11.23
2023-04-26T07:21:17.433Z,11.09
2023-04-26T07:23:44.983Z,10.91
2023-04-26T07:26:12.042Z,11.20
2023-04-26T07:28:39.246Z,11.53
2023-04-26T07:31:08.736Z,11.40
2023-04-26T07:33:37.239Z,11.22
2023-04-26T07:36:04.517Z,10.91
2023-04-26T07:38:32.342Z,10.63
2023-04-26T07:41:01.205Z,10.45
2023-04-26T07:43:28.166Z,10.32
2023-04-26T07:45:55.684Z,10.88
2023-04-26T07:48:22.857Z,11.30
2023-04-26T07:50:50.053Z,11.40
2023-04-26T07:53:17.871Z,11.27
2023-04-26T07:55:44.806Z,11.01
2023-04-26T07:58:14.791Z,10.70
2023-04-26T08:00:42.070Z,10.39
2023-04-26T08:03:09.413Z,10.20
2023-04-26T08:05:37.378Z,10.63
2023-04-26T08:08:05.165Z,11.13
2023-04-26T08:10:32.265Z,11.09
2023-04-26T08:13:03.378Z,10.93
2023-04-26T08:15:32.085Z,10.72
2023-04-26T08:17:59.097Z,10.56
2023-04-26T08:20:26.226Z,10.39
2023-04-26T08:22:59.663Z,10.25
2023-04-26T08:25:26.761Z,10.64
2023-04-26T08:27:54.122Z,11.12
2023-04-26T08:30:21.475Z,11.20
2023-04-26T08:32:48.904Z,11.01
2023-04-26T08:35:15.902Z,10.70
2023-04-26T08:37:42.815Z,10.48
2023-04-26T08:40:12.991Z,10.30
2023-04-26T08:42:44.411Z,10.22
2023-04-26T08:45:13.902Z,10.69
2023-04-26T08:47:46.074Z,11.05
2023-04-26T08:50:15.063Z,11.03
2023-04-26T08:52:42.798Z,10.85
2023-04-26T08:55:20.197Z,10.66
2023-04-26T08:57:48.212Z,10.52
2023-04-26T09:00:16.284Z,10.27
2023-04-26T09:02:49.746Z,10.00
2023-04-26T09:05:17.179Z,10.47
2023-04-26T09:07:45.819Z,10.79
2023-04-26T09:10:13.609Z,10.82
2023-04-26T09:12:41.352Z,10.67
2023-04-26T09:15:09.109Z,10.51
2023-04-26T09:17:41.940Z,10.36
2023-04-26T09:20:26.420Z,10.20
2023-04-26T09:22:54.945Z,10.68
2023-04-26T09:25:29.698Z,11.17
2023-04-26T09:27:56.623Z,11.14
2023-04-26T09:30:23.953Z,10.99
2023-04-26T09:32:55.989Z,10.89
2023-04-26T09:35:35.966Z,10.69
2023-04-26T09:38:12.769Z,10.47
2023-04-26T09:40:45.083Z,10.32
2023-04-26T09:43:16.346Z,10.78
2023-04-26T09:45:51.120Z,11.13
2023-04-26T09:48:30.909Z,11.18
2023-04-26T09:50:59.089Z,10.98
2023-04-26T09:53:42.759Z,10.75
2023-04-26T09:56:14.272Z,10.51
2023-04-26T09:58:44.223Z,10.20
2023-04-26T10:01:14.118Z,9.95
2023-04-26T10:03:42.876Z,9.86
2023-04-26T10:06:10.465Z,10.34
2023-04-26T10:08:37.741Z,10.68
2023-04-26T10:11:05.283Z,10.73
2023-04-26T10:13:32.967Z,10.41
2023-04-26T10:16:03.633Z,10.22
2023-04-26T10:18:31.565Z,10.08
2023-04-26T10:21:00.435Z,9.84
2023-04-26T10:23:27.427Z,9.64
2023-04-26T10:25:54.661Z,10.16
2023-04-26T10:28:40.096Z,10.79
2023-04-26T10:31:07.785Z,10.94
2023-04-26T10:33:34.900Z,10.80
2023-04-26T10:36:03.154Z,10.54
2023-04-26T10:38:30.957Z,10.20
2023-04-26T10:41:34.327Z,9.94
2023-04-26T10:44:23.092Z,9.70
2023-04-26T10:46:51.319Z,9.57
2023-04-26T10:49:19.957Z,10.20
2023-04-26T10:52:10.526Z,10.68
2023-04-26T10:54:51.053Z,10.66
2023-04-26T10:57:18.337Z,10.48
2023-04-26T11:00:12.549Z,10.37
2023-04-26T11:02:53.356Z,10.23
2023-04-26T11:05:42.831Z,10.10
2023-04-26T11:08:19.579Z,9.96
2023-04-26T11:10:57.711Z,10.64
2023-04-26T11:13:24.978Z,11.23
2023-04-26T11:16:05.835Z,11.29
2023-04-26T11:18:33.480Z,11.15
2023-04-26T11:21:00.778Z,10.91
2023-04-26T11:23:29.152Z,10.64
2023-04-26T11:26:00.338Z,10.45
2023-04-26T11:28:27.758Z,10.21
2023-04-26T11:30:55.948Z,10.00
2023-04-26T11:33:23.248Z,10.53
2023-04-26T11:35:54.751Z,11.13
2023-04-26T11:38:22.868Z,11.21
2023-04-26T11:41:00.547Z,11.02
2023-04-26T11:43:45.590Z,10.76
2023-04-26T11:46:12.761Z,10.44
2023-04-26T11:48:39.933Z,10.23
2023-04-26T11:51:07.798Z,10.02
2023-04-26T11:53:39.112Z,10.38
2023-04-26T11:56:18.875Z,10.93
2023-04-26T11:58:49.877Z,11.01
2023-04-26T12:01:21.288Z,10.82
2023-04-26T12:03:53.925Z,10.52
2023-04-26T12:06:25.899Z,10.31
2023-04-26T12:08:53.177Z,10.14
2023-04-26T12:11:20.850Z,10.01
2023-04-26T12:13:49.160Z,10.54
2023-04-26T12:16:25.611Z,11.16
2023-04-26T12:18:54.833Z,11.30
2023-04-26T12:21:22.087Z,11.20
2023-04-26T12:23:49.195Z,11.00
2023-04-26T12:26:16.166Z,10.77
2023-04-26T12:28:43.290Z,10.50
2023-04-26T12:31:10.410Z,10.21
2023-04-26T12:33:37.970Z,9.98
2023-04-26T12:36:12.069Z,10.41
2023-04-26T12:38:39.575Z,10.94
2023-04-26T12:41:06.946Z,10.95
2023-04-26T12:43:34.224Z,10.83
2023-04-26T12:46:01.614Z,10.68
2023-04-26T12:48:29.044Z,10.56
2023-04-26T12:50:56.152Z,10.47
2023-04-26T12:53:23.306Z,10.42
2023-04-26T12:55:50.328Z,11.04
2023-04-26T12:58:17.291Z,11.76
2023-04-26T13:00:44.849Z,11.95
2023-04-26T13:03:14.634Z,11.88
2023-04-26T13:05:42.012Z,11.65
2023-04-26T13:08:09.100Z,11.45
2023-04-26T13:10:37.049Z,11.24
2023-04-26T13:13:04.080Z,11.07
2023-04-26T13:15:31.079Z,10.99
2023-04-26T13:17:58.141Z,10.93
2023-04-26T13:20:26.694Z,11.55
2023-04-26T13:22:54.935Z,12.34
2023-04-26T13:25:22.434Z,12.55
2023-04-26T13:27:49.420Z,12.47
2023-04-26T13:30:16.491Z,12.24
2023-04-26T13:32:44.002Z,11.98
2023-04-26T13:35:12.258Z,11.68
2023-04-26T13:37:39.244Z,11.47
2023-04-26T13:40:07.080Z,11.28
2023-04-26T13:42:34.255Z,11.12
2023-04-26T13:45:06.157Z,10.94
2023-04-26T13:47:34.011Z,10.77
2023-04-26T13:50:01.293Z,11.28
2023-04-26T13:52:28.288Z,11.94
2023-04-26T13:54:55.503Z,12.10
2023-04-26T13:57:22.390Z,12.01
2023-04-26T13:59:49.516Z,11.83
2023-04-26T14:02:16.612Z,11.58
2023-04-26T14:04:43.857Z,11.37
2023-04-26T14:07:11.143Z,11.17
2023-04-26T14:09:38.087Z,10.99
2023-04-26T14:12:08.643Z,10.79
2023-04-26T14:14:37.062Z,10.67
2023-04-26T14:17:04.018Z,10.53
2023-04-26T14:19:31.458Z,10.41
2023-04-26T14:21:58.440Z,10.91
2023-04-26T14:24:25.547Z,11.49
2023-04-26T14:26:52.412Z,11.67
2023-04-26T14:29:19.479Z,11.59
2023-04-26T14:31:46.577Z,11.39
2023-04-26T14:34:13.647Z,11.16
2023-04-26T14:36:40.692Z,11.00
2023-04-26T14:39:07.847Z,10.90
2023-04-26T14:41:35.570Z,10.81
2023-04-26T14:44:02.494Z,10.76
2023-04-26T14:46:30.257Z,10.76
2023-04-26T14:48:57.196Z,10.73
2023-04-26T14:51:24.483Z,10.70
2023-04-26T14:53:51.601Z,10.68
2023-04-26T14:56:18.554Z,10.62
2023-04-26T14:58:45.497Z,10.56
2023-04-26T15:01:12.488Z,10.55
2023-04-26T15:03:39.649Z,10.55
2023-04-26T15:06:09.575Z,11.12
2023-04-26T15:08:37.291Z,11.80
2023-04-26T15:11:04.520Z,11.91
2023-04-26T15:13:31.583Z,11.78
2023-04-26T15:16:06.049Z,11.57
2023-04-26T15:18:34.440Z,11.38
2023-04-26T15:21:01.824Z,11.26
2023-04-26T15:23:28.951Z,11.18
2023-04-26T15:25:56.334Z,11.11
2023-04-26T15:28:23.684Z,11.02
2023-04-26T15:30:50.705Z,10.96
2023-04-26T15:33:18.128Z,10.92
2023-04-26T15:35:45.469Z,10.92
2023-04-26T15:38:12.628Z,10.88
2023-04-26T15:40:39.520Z,10.80
2023-04-26T15:43:06.514Z,10.75
2023-04-26T15:45:35.755Z,10.70
2023-04-26T15:48:02.757Z,10.62
2023-04-26T15:50:30.170Z,10.52
2023-04-26T15:52:58.327Z,10.39
2023-04-26T15:55:25.970Z,10.31
2023-04-26T15:57:52.964Z,10.24
2023-04-26T16:00:20.843Z,10.18
2023-04-26T16:02:47.971Z,10.14
2023-04-26T16:05:15.513Z,10.12
2023-04-26T16:07:44.057Z,10.09
2023-04-26T16:10:11.183Z,10.06
2023-04-26T16:12:39.998Z,10.04
2023-04-26T16:15:08.348Z,10.03
2023-04-26T16:17:35.777Z,9.99
2023-04-26T16:20:04.962Z,9.97
2023-04-26T16:22:33.109Z,9.95
2023-04-26T16:25:00.039Z,9.92
2023-04-26T16:27:27.408Z,9.85
2023-04-26T16:29:54.523Z,9.82
2023-04-26T16:32:21.847Z,9.80
2023-04-26T16:34:49.117Z,9.78
2023-04-26T16:37:16.106Z,9.76
2023-04-26T16:39:43.084Z,9.74
2023-04-26T16:42:10.044Z,9.72
2023-04-26T16:44:37.238Z,9.70
2023-04-26T16:47:04.404Z,9.67
2023-04-26T16:49:32.123Z,9.63
2023-04-26T16:51:59.357Z,9.58
2023-04-26T16:54:26.407Z,9.50
2023-04-26T16:56:53.812Z,10.05
2023-04-26T16:59:20.778Z,10.74
2023-04-26T17:01:47.962Z,10.93
2023-04-26T17:04:15.606Z,10.84
2023-04-26T17:06:44.408Z,10.65
2023-04-26T17:09:12.864Z,10.45
2023-04-26T17:11:43.533Z,10.28
2023-04-26T17:14:10.970Z,10.11
2023-04-26T17:16:38.646Z,9.95
2023-04-26T17:19:06.900Z,9.81
2023-04-26T17:21:34.000Z,9.70
2023-04-26T17:24:01.017Z,9.62
2023-04-26T17:26:28.003Z,9.54
2023-04-26T17:28:56.273Z,9.47
2023-04-26T17:31:23.269Z,9.40
2023-04-26T17:33:50.573Z,9.35
2023-04-26T17:36:17.952Z,9.29
2023-04-26T17:38:45.544Z,9.26
2023-04-26T17:41:18.924Z,9.20
2023-04-26T17:43:45.953Z,9.17
2023-04-26T17:46:13.030Z,9.17
2023-04-26T17:48:40.333Z,9.15
2023-04-26T17:51:07.475Z,9.09
2023-04-26T17:53:34.894Z,9.59
2023-04-26T17:56:01.843Z,10.27
2023-04-26T17:58:28.852Z,10.47
2023-04-26T18:00:56.041Z,10.40
2023-04-26T18:03:23.502Z,10.20
2023-04-26T18:05:50.752Z,9.99
2023-04-26T18:08:17.711Z,9.82
2023-04-26T18:10:45.761Z,9.67
2023-04-26T18:13:14.269Z,9.52
2023-04-26T18:15:41.374Z,9.38
2023-04-26T18:18:08.864Z,9.26
2023-04-26T18:20:36.921Z,9.14
2023-04-26T18:23:04.110Z,9.05
2023-04-26T18:25:31.479Z,8.93
2023-04-26T18:27:58.673Z,8.83
2023-04-26T18:30:25.669Z,8.75
2023-04-26T18:32:53.217Z,8.67
2023-04-26T18:35:20.471Z,8.60
2023-04-26T18:37:47.479Z,8.54
2023-04-26T18:40:14.459Z,8.45
2023-04-26T18:42:42.157Z,8.98
2023-04-26T18:45:09.592Z,9.63
2023-04-26T18:47:36.717Z,9.83
2023-04-26T18:50:04.417Z,9.78
2023-04-26T18:52:31.651Z,9.58
2023-04-26T18:54:58.552Z,9.38
2023-04-26T18:57:28.380Z,9.19
2023-04-26T18:59:57.296Z,8.98
2023-04-26T19:02:24.345Z,8.85
2023-04-26T19:04:51.365Z,8.73
2023-04-26T19:07:18.482Z,8.60
2023-04-26T19:09:53.550Z,9.06
2023-04-26T19:12:21.997Z,9.71
2023-04-26T19:14:49.069Z,9.83
2023-04-26T19:17:16.000Z,9.69
2023-04-26T19:19:42.949Z,9.50
2023-04-26T19:22:09.865Z,9.28
2023-04-26T19:24:37.182Z,9.09
2023-04-26T19:27:04.685Z,8.92
2023-04-26T19:29:32.197Z,8.77
2023-04-26T19:32:00.132Z,8.65
2023-04-26T19:34:28.016Z,8.51
2023-04-26T19:36:55.056Z,8.99
2023-04-26T19:39:23.540Z,9.66
2023-04-26T19:41:50.937Z,9.82
2023-04-26T19:44:17.941Z,9.72
2023-04-26T19:46:44.917Z,9.51
2023-04-26T19:49:12.134Z,9.30
2023-04-26T19:51:39.013Z,9.08
2023-04-26T19:54:06.269Z,8.91
2023-04-26T19:56:33.666Z,8.75
2023-04-26T19:59:00.688Z,8.63
2023-04-26T20:01:27.992Z,8.52
2023-04-26T20:03:55.197Z,8.39
2023-04-26T20:06:22.427Z,8.91
2023-04-26T20:08:50.968Z,9.57
2023-04-26T20:11:18.574Z,9.73
2023-04-26T20:13:45.748Z,9.60
2023-04-26T20:16:12.884Z,9.40
2023-04-26T20:18:39.956Z,9.22
2023-04-26T20:21:07.214Z,9.03
2023-04-26T20:23:34.199Z,8.86
2023-04-26T20:26:01.165Z,8.70
2023-04-26T20:28:28.117Z,8.58
2023-04-26T20:30:55.077Z,8.48
2023-04-26T20:33:22.472Z,8.39
2023-04-26T20:35:49.618Z,8.31
2023-04-26T20:38:17.400Z,8.22
2023-04-26T20:40:44.383Z,8.74
2023-04-26T20:43:12.158Z,9.39
2023-04-26T20:45:40.348Z,9.54
2023-04-26T20:48:07.598Z,9.46
2023-04-26T20:50:36.411Z,9.31
2023-04-26T20:53:06.766Z,9.11
2023-04-26T20:55:33.797Z,8.96
2023-04-26T20:58:01.082Z,8.80
2023-04-26T21:00:28.024Z,8.68
2023-04-26T21:03:00.477Z,8.57
2023-04-26T21:05:27.618Z,8.49
2023-04-26T21:07:54.658Z,8.38
2023-04-26T21:10:22.064Z,8.31
2023-04-26T21:12:49.230Z,8.26
2023-04-26T21:15:16.209Z,8.20
2023-04-26T21:17:43.661Z,8.17
2023-04-26T21:20:11.372Z,8.12
2023-04-26T21:22:38.747Z,8.08
2023-04-26T21:25:06.296Z,8.04
2023-04-26T21:27:34.169Z,8.00
2023-04-26T21:30:01.179Z,7.96
2023-04-26T21:32:28.146Z,7.92
2023-04-26T21:34:55.259Z,7.88
2023-04-26T21:37:22.202Z,7.86
2023-04-26T21:39:49.169Z,7.80
2023-04-26T21:42:19.165Z,7.71
2023-04-26T21:44:46.174Z,7.61
2023-04-26T21:47:13.150Z,7.49
2023-04-26T21:49:40.231Z,7.34
2023-04-26T21:52:07.326Z,7.22
2023-04-26T21:54:35.767Z,7.06
2023-04-26T21:57:06.696Z,7.47
2023-04-26T21:59:33.833Z,8.10
2023-04-26T22:02:01.353Z,8.22
2023-04-26T22:04:29.094Z,8.07
2023-04-26T22:06:56.314Z,7.82
2023-04-26T22:09:23.393Z,7.57
2023-04-26T22:11:50.588Z,7.33
2023-04-26T22:14:17.588Z,7.13
2023-04-26T22:16:44.779Z,6.94
2023-04-26T22:19:12.005Z,6.76
2023-04-26T22:21:39.527Z,6.57
2023-04-26T22:24:06.956Z,6.39
2023-04-26T22:26:34.786Z,6.83
2023-04-26T22:29:01.874Z,7.46
2023-04-26T22:31:29.220Z,7.59
2023-04-26T22:33:56.335Z,7.44
2023-04-26T22:36:23.895Z,7.24
2023-04-26T22:38:50.807Z,7.04
2023-04-26T22:41:17.722Z,6.85
2023-04-26T22:43:44.769Z,6.73
2023-04-26T22:46:12.201Z,6.63
2023-04-26T22:48:39.327Z,6.57
2023-04-26T22:51:06.669Z,6.49
2023-04-26T22:53:33.735Z,7.01
2023-04-26T22:56:01.090Z,7.72
2023-04-26T22:58:28.096Z,7.92
2023-04-26T23:00:55.113Z,7.81
2023-04-26T23:03:22.349Z,7.63
2023-04-26T23:05:49.493Z,7.39
2023-04-26T23:08:16.767Z,7.20
2023-04-26T23:10:45.009Z,7.04
2023-04-26T23:13:12.060Z,6.92
2023-04-26T23:15:39.245Z,6.80
2023-04-26T23:18:06.292Z,6.72
2023-04-26T23:20:33.305Z,6.64
2023-04-26T23:23:00.239Z,6.55
2023-04-26T23:25:27.178Z,7.03
2023-04-26T23:27:54.082Z,7.71
2023-04-26T23:30:21.224Z,7.90
2023-04-26T23:32:48.308Z,7.80
2023-04-26T23:35:15.274Z,7.57
2023-04-26T23:37:42.331Z,7.32
2023-04-26T23:40:10.336Z,7.11
2023-04-26T23:42:37.318Z,6.94
2023-04-26T23:45:04.690Z,6.81
2023-04-26T23:47:32.137Z,6.70
2023-04-26T23:49:59.347Z,6.61
2023-04-26T23:52:26.431Z,6.53
2023-04-26T23:54:53.418Z,6.45
2023-04-26T23:57:20.522Z,7.00
2023-04-26T23:59:47.923Z,7.72
